sensor_id;sensor_type;location;lat;lon;timestamp;P1;durP1;ratioP1;P2;durP2;ratioP2
63587;SDS011;49966;46.896;18.004;2023-09-19T00:00:38;14.45;;;4.63;;
63587;SDS011;49966;46.896;18.004;2023-09-19T00:03:09;14.48;;;4.80;;
63587;SDS011;49966;46.896;18.004;2023-09-19T00:05:39;19.90;;;5.88;;
63587;SDS011;49966;46.896;18.004;2023-09-19T00:08:11;19.27;;;4.53;;
63587;SDS011;49966;46.896;18.004;2023-09-19T00:10:43;15.77;;;4.50;;
63587;SDS011;49966;46.896;18.004;2023-09-19T00:13:11;17.83;;;5.00;;
63587;SDS011;49966;46.896;18.004;2023-09-19T00:15:43;16.75;;;5.10;;
63587;SDS011;49966;46.896;18.004;2023-09-19T00:18:16;15.05;;;5.35;;
63587;SDS011;49966;46.896;18.004;2023-09-19T00:20:45;15.68;;;5.00;;
63587;SDS011;49966;46.896;18.004;2023-09-19T00:23:17;12.55;;;4.63;;
63587;SDS011;49966;46.896;18.004;2023-09-19T00:25:48;17.70;;;4.65;;
63587;SDS011;49966;46.896;18.004;2023-09-19T00:28:17;17.27;;;4.80;;
63587;SDS011;49966;46.896;18.004;2023-09-19T00:30:47;18.17;;;4.57;;
63587;SDS011;49966;46.896;18.004;2023-09-19T00:33:18;19.65;;;5.05;;
63587;SDS011;49966;46.896;18.004;2023-09-19T00:35:47;20.50;;;5.00;;
63587;SDS011;49966;46.896;18.004;2023-09-19T00:38:16;17.60;;;4.88;;
63587;SDS011;49966;46.896;18.004;2023-09-19T00:40:51;16.10;;;4.78;;
63587;SDS011;49966;46.896;18.004;2023-09-19T00:43:21;14.77;;;4.93;;
63587;SDS011;49966;46.896;18.004;2023-09-19T00:45:52;13.23;;;4.80;;
63587;SDS011;49966;46.896;18.004;2023-09-19T00:48:21;21.33;;;5.28;;
63587;SDS011;49966;46.896;18.004;2023-09-19T00:50:52;23.25;;;5.78;;
63587;SDS011;49966;46.896;18.004;2023-09-19T00:53:21;18.33;;;4.82;;
63587;SDS011;49966;46.896;18.004;2023-09-19T00:55:53;15.38;;;4.78;;
63587;SDS011;49966;46.896;18.004;2023-09-19T00:58:23;17.02;;;5.00;;
63587;SDS011;49966;46.896;18.004;2023-09-19T01:00:51;12.93;;;4.55;;
63587;SDS011;49966;46.896;18.004;2023-09-19T01:03:20;17.75;;;5.38;;
63587;SDS011;49966;46.896;18.004;2023-09-19T01:05:51;15.48;;;4.85;;
63587;SDS011;49966;46.896;18.004;2023-09-19T01:08:19;19.00;;;5.53;;
63587;SDS011;49966;46.896;18.004;2023-09-19T01:10:51;15.00;;;4.57;;
63587;SDS011;49966;46.896;18.004;2023-09-19T01:13:28;11.55;;;4.38;;
63587;SDS011;49966;46.896;18.004;2023-09-19T01:16:02;15.10;;;4.75;;
63587;SDS011;49966;46.896;18.004;2023-09-19T01:18:40;16.42;;;5.00;;
63587;SDS011;49966;46.896;18.004;2023-09-19T01:21:21;11.95;;;5.18;;
63587;SDS011;49966;46.896;18.004;2023-09-19T01:24:07;14.57;;;4.88;;
63587;SDS011;49966;46.896;18.004;2023-09-19T01:26:54;16.63;;;4.68;;
63587;SDS011;49966;46.896;18.004;2023-09-19T01:29:34;17.00;;;4.90;;
63587;SDS011;49966;46.896;18.004;2023-09-19T01:32:08;16.98;;;5.72;;
63587;SDS011;49966;46.896;18.004;2023-09-19T01:34:43;13.98;;;4.47;;
63587;SDS011;49966;46.896;18.004;2023-09-19T01:37:15;21.48;;;4.65;;
63587;SDS011;49966;46.896;18.004;2023-09-19T01:39:47;20.20;;;4.78;;
63587;SDS011;49966;46.896;18.004;2023-09-19T01:42:21;20.27;;;5.15;;
63587;SDS011;49966;46.896;18.004;2023-09-19T01:45:01;12.60;;;4.40;;
63587;SDS011;49966;46.896;18.004;2023-09-19T01:47:37;14.98;;;4.70;;
63587;SDS011;49966;46.896;18.004;2023-09-19T01:50:13;14.93;;;4.30;;
63587;SDS011;49966;46.896;18.004;2023-09-19T01:52:51;17.48;;;4.68;;
63587;SDS011;49966;46.896;18.004;2023-09-19T01:55:28;17.27;;;4.25;;
63587;SDS011;49966;46.896;18.004;2023-09-19T01:58:01;14.27;;;4.93;;
63587;SDS011;49966;46.896;18.004;2023-09-19T02:03:31;20.65;;;5.03;;
63587;SDS011;49966;46.896;18.004;2023-09-19T02:06:04;18.92;;;4.82;;
63587;SDS011;49966;46.896;18.004;2023-09-19T02:08:38;15.68;;;5.22;;
63587;SDS011;49966;46.896;18.004;2023-09-19T02:11:08;15.85;;;5.00;;
63587;SDS011;49966;46.896;18.004;2023-09-19T02:13:38;16.27;;;5.07;;
63587;SDS011;49966;46.896;18.004;2023-09-19T02:16:09;18.70;;;5.00;;
63587;SDS011;49966;46.896;18.004;2023-09-19T02:18:41;15.13;;;4.47;;
63587;SDS011;49966;46.896;18.004;2023-09-19T02:21:10;13.73;;;5.30;;
63587;SDS011;49966;46.896;18.004;2023-09-19T02:23:39;12.55;;;4.60;;
63587;SDS011;49966;46.896;18.004;2023-09-19T02:26:09;16.25;;;5.13;;
63587;SDS011;49966;46.896;18.004;2023-09-19T02:28:39;12.85;;;4.88;;
63587;SDS011;49966;46.896;18.004;2023-09-19T02:31:08;15.57;;;5.15;;
63587;SDS011;49966;46.896;18.004;2023-09-19T02:33:38;17.30;;;6.28;;
63587;SDS011;49966;46.896;18.004;2023-09-19T02:36:10;14.27;;;4.90;;
63587;SDS011;49966;46.896;18.004;2023-09-19T02:38:39;18.92;;;5.28;;
63587;SDS011;49966;46.896;18.004;2023-09-19T02:41:08;23.02;;;5.32;;
63587;SDS011;49966;46.896;18.004;2023-09-19T02:43:37;13.52;;;4.65;;
63587;SDS011;49966;46.896;18.004;2023-09-19T02:46:07;17.02;;;5.13;;
63587;SDS011;49966;46.896;18.004;2023-09-19T02:48:36;18.75;;;4.75;;
63587;SDS011;49966;46.896;18.004;2023-09-19T02:51:06;12.35;;;4.47;;
63587;SDS011;49966;46.896;18.004;2023-09-19T02:53:36;20.20;;;4.60;;
63587;SDS011;49966;46.896;18.004;2023-09-19T02:56:06;12.98;;;4.95;;
63587;SDS011;49966;46.896;18.004;2023-09-19T02:58:34;22.20;;;5.13;;
63587;SDS011;49966;46.896;18.004;2023-09-19T03:01:07;16.00;;;4.80;;
63587;SDS011;49966;46.896;18.004;2023-09-19T03:03:38;15.60;;;5.10;;
63587;SDS011;49966;46.896;18.004;2023-09-19T03:06:10;14.25;;;5.05;;
63587;SDS011;49966;46.896;18.004;2023-09-19T03:08:41;18.45;;;5.28;;
63587;SDS011;49966;46.896;18.004;2023-09-19T03:11:11;24.42;;;5.45;;
63587;SDS011;49966;46.896;18.004;2023-09-19T03:13:42;13.88;;;5.03;;
63587;SDS011;49966;46.896;18.004;2023-09-19T03:16:12;12.13;;;5.15;;
63587;SDS011;49966;46.896;18.004;2023-09-19T03:18:42;14.95;;;4.90;;
63587;SDS011;49966;46.896;18.004;2023-09-19T03:21:12;14.35;;;5.35;;
63587;SDS011;49966;46.896;18.004;2023-09-19T03:23:43;17.85;;;5.80;;
63587;SDS011;49966;46.896;18.004;2023-09-19T03:26:12;20.13;;;5.20;;
63587;SDS011;49966;46.896;18.004;2023-09-19T03:28:43;16.33;;;5.10;;
63587;SDS011;49966;46.896;18.004;2023-09-19T03:31:13;18.05;;;4.72;;
63587;SDS011;49966;46.896;18.004;2023-09-19T03:33:43;13.63;;;4.63;;
63587;SDS011;49966;46.896;18.004;2023-09-19T03:36:12;14.90;;;5.00;;
63587;SDS011;49966;46.896;18.004;2023-09-19T03:38:44;17.50;;;4.30;;
63587;SDS011;49966;46.896;18.004;2023-09-19T03:41:13;19.17;;;4.78;;
63587;SDS011;49966;46.896;18.004;2023-09-19T03:43:44;18.15;;;4.93;;
63587;SDS011;49966;46.896;18.004;2023-09-19T03:46:12;16.73;;;5.15;;
63587;SDS011;49966;46.896;18.004;2023-09-19T03:48:42;16.20;;;4.80;;
63587;SDS011;49966;46.896;18.004;2023-09-19T03:51:10;21.30;;;5.80;;
63587;SDS011;49966;46.896;18.004;2023-09-19T03:53:39;20.83;;;6.00;;
63587;SDS011;49966;46.896;18.004;2023-09-19T03:56:09;6.95;;;2.72;;
63587;SDS011;49966;46.896;18.004;2023-09-19T03:58:38;8.55;;;1.90;;
63587;SDS011;49966;46.896;18.004;2023-09-19T04:01:07;5.82;;;1.90;;
63587;SDS011;49966;46.896;18.004;2023-09-19T04:03:35;8.48;;;1.52;;
63587;SDS011;49966;46.896;18.004;2023-09-19T04:06:13;7.70;;;1.70;;
63587;SDS011;49966;46.896;18.004;2023-09-19T04:08:42;6.85;;;1.40;;
63587;SDS011;49966;46.896;18.004;2023-09-19T04:11:14;2.08;;;1.23;;
63587;SDS011;49966;46.896;18.004;2023-09-19T04:13:42;3.28;;;1.40;;
63587;SDS011;49966;46.896;18.004;2023-09-19T04:16:11;2.45;;;1.77;;
63587;SDS011;49966;46.896;18.004;2023-09-19T04:18:40;2.05;;;1.35;;
63587;SDS011;49966;46.896;18.004;2023-09-19T04:21:09;4.57;;;1.30;;
63587;SDS011;49966;46.896;18.004;2023-09-19T04:23:37;2.17;;;1.15;;
63587;SDS011;49966;46.896;18.004;2023-09-19T04:26:06;2.05;;;1.40;;
63587;SDS011;49966;46.896;18.004;2023-09-19T04:28:37;1.42;;;1.33;;
63587;SDS011;49966;46.896;18.004;2023-09-19T04:31:06;2.92;;;1.45;;
63587;SDS011;49966;46.896;18.004;2023-09-19T04:33:37;2.80;;;1.17;;
63587;SDS011;49966;46.896;18.004;2023-09-19T04:36:06;2.17;;;1.33;;
63587;SDS011;49966;46.896;18.004;2023-09-19T04:38:55;3.38;;;1.70;;
63587;SDS011;49966;46.896;18.004;2023-09-19T04:41:24;2.35;;;1.30;;
63587;SDS011;49966;46.896;18.004;2023-09-19T04:43:57;1.08;;;1.08;;
63587;SDS011;49966;46.896;18.004;2023-09-19T04:46:26;5.70;;;1.50;;
63587;SDS011;49966;46.896;18.004;2023-09-19T04:48:55;1.25;;;1.15;;
63587;SDS011;49966;46.896;18.004;2023-09-19T04:51:23;1.10;;;1.10;;
63587;SDS011;49966;46.896;18.004;2023-09-19T04:53:53;2.63;;;1.75;;
63587;SDS011;49966;46.896;18.004;2023-09-19T04:56:22;1.95;;;1.17;;
63587;SDS011;49966;46.896;18.004;2023-09-19T04:58:51;1.48;;;1.30;;
63587;SDS011;49966;46.896;18.004;2023-09-19T05:01:22;1.98;;;0.88;;
63587;SDS011;49966;46.896;18.004;2023-09-19T05:03:49;1.48;;;1.20;;
63587;SDS011;49966;46.896;18.004;2023-09-19T05:06:19;2.60;;;1.10;;
63587;SDS011;49966;46.896;18.004;2023-09-19T05:08:49;1.30;;;1.20;;
63587;SDS011;49966;46.896;18.004;2023-09-19T05:11:19;3.75;;;1.20;;
63587;SDS011;49966;46.896;18.004;2023-09-19T05:13:50;2.17;;;1.23;;
63587;SDS011;49966;46.896;18.004;2023-09-19T05:16:21;1.23;;;1.10;;
63587;SDS011;49966;46.896;18.004;2023-09-19T05:18:50;7.18;;;1.58;;
63587;SDS011;49966;46.896;18.004;2023-09-19T05:21:19;3.63;;;1.15;;
63587;SDS011;49966;46.896;18.004;2023-09-19T05:23:47;1.63;;;1.10;;
63587;SDS011;49966;46.896;18.004;2023-09-19T05:26:16;1.58;;;1.30;;
63587;SDS011;49966;46.896;18.004;2023-09-19T05:28:45;2.95;;;1.23;;
63587;SDS011;49966;46.896;18.004;2023-09-19T05:31:14;1.92;;;1.63;;
63587;SDS011;49966;46.896;18.004;2023-09-19T05:33:45;1.88;;;1.20;;
63587;SDS011;49966;46.896;18.004;2023-09-19T05:36:13;1.52;;;1.40;;
63587;SDS011;49966;46.896;18.004;2023-09-19T05:38:43;4.20;;;1.42;;
63587;SDS011;49966;46.896;18.004;2023-09-19T05:41:12;2.50;;;1.65;;
63587;SDS011;49966;46.896;18.004;2023-09-19T05:43:41;3.83;;;1.50;;
63587;SDS011;49966;46.896;18.004;2023-09-19T05:46:10;1.83;;;1.50;;
63587;SDS011;49966;46.896;18.004;2023-09-19T05:48:39;3.53;;;1.40;;
63587;SDS011;49966;46.896;18.004;2023-09-19T05:51:10;3.08;;;1.48;;
63587;SDS011;49966;46.896;18.004;2023-09-19T05:53:38;1.92;;;1.25;;
63587;SDS011;49966;46.896;18.004;2023-09-19T05:56:09;3.92;;;1.58;;
63587;SDS011;49966;46.896;18.004;2023-09-19T05:58:38;2.05;;;1.55;;
63587;SDS011;49966;46.896;18.004;2023-09-19T06:01:07;1.92;;;1.55;;
63587;SDS011;49966;46.896;18.004;2023-09-19T06:03:36;2.35;;;1.17;;
63587;SDS011;49966;46.896;18.004;2023-09-19T06:06:05;5.28;;;1.50;;
63587;SDS011;49966;46.896;18.004;2023-09-19T06:08:36;2.88;;;1.60;;
63587;SDS011;49966;46.896;18.004;2023-09-19T06:11:05;3.58;;;1.60;;
63587;SDS011;49966;46.896;18.004;2023-09-19T06:13:36;5.32;;;1.98;;
63587;SDS011;49966;46.896;18.004;2023-09-19T06:16:06;3.05;;;1.48;;
63587;SDS011;49966;46.896;18.004;2023-09-19T06:18:36;3.03;;;1.58;;
63587;SDS011;49966;46.896;18.004;2023-09-19T06:21:05;3.03;;;1.50;;
63587;SDS011;49966;46.896;18.004;2023-09-19T06:23:34;7.22;;;1.58;;
63587;SDS011;49966;46.896;18.004;2023-09-19T06:26:05;2.50;;;1.40;;
63587;SDS011;49966;46.896;18.004;2023-09-19T06:28:35;3.50;;;1.50;;
63587;SDS011;49966;46.896;18.004;2023-09-19T06:31:03;2.05;;;1.27;;
63587;SDS011;49966;46.896;18.004;2023-09-19T06:33:37;2.50;;;1.45;;
63587;SDS011;49966;46.896;18.004;2023-09-19T06:36:06;6.07;;;1.58;;
63587;SDS011;49966;46.896;18.004;2023-09-19T06:38:36;4.38;;;1.67;;
63587;SDS011;49966;46.896;18.004;2023-09-19T06:41:05;3.67;;;1.70;;
63587;SDS011;49966;46.896;18.004;2023-09-19T06:43:35;2.17;;;1.45;;
63587;SDS011;49966;46.896;18.004;2023-09-19T06:46:04;2.63;;;1.50;;
63587;SDS011;49966;46.896;18.004;2023-09-19T06:48:34;1.80;;;1.63;;
63587;SDS011;49966;46.896;18.004;2023-09-19T06:51:02;3.53;;;1.60;;
63587;SDS011;49966;46.896;18.004;2023-09-19T06:53:32;4.35;;;1.67;;
63587;SDS011;49966;46.896;18.004;2023-09-19T06:56:03;5.45;;;1.95;;
63587;SDS011;49966;46.896;18.004;2023-09-19T06:58:33;4.20;;;1.33;;
63587;SDS011;49966;46.896;18.004;2023-09-19T07:01:03;1.38;;;1.30;;
63587;SDS011;49966;46.896;18.004;2023-09-19T07:03:31;4.65;;;1.80;;
63587;SDS011;49966;46.896;18.004;2023-09-19T07:06:00;1.55;;;1.42;;
63587;SDS011;49966;46.896;18.004;2023-09-19T07:08:31;1.85;;;1.52;;
63587;SDS011;49966;46.896;18.004;2023-09-19T07:11:00;1.85;;;1.38;;
63587;SDS011;49966;46.896;18.004;2023-09-19T07:13:30;2.15;;;1.52;;
63587;SDS011;49966;46.896;18.004;2023-09-19T07:15:58;2.15;;;1.73;;
63587;SDS011;49966;46.896;18.004;2023-09-19T07:18:26;3.45;;;1.50;;
63587;SDS011;49966;46.896;18.004;2023-09-19T07:20:56;1.90;;;1.20;;
63587;SDS011;49966;46.896;18.004;2023-09-19T07:23:28;3.65;;;1.65;;
63587;SDS011;49966;46.896;18.004;2023-09-19T07:25:56;7.72;;;1.90;;
63587;SDS011;49966;46.896;18.004;2023-09-19T07:28:25;3.92;;;1.60;;
63587;SDS011;49966;46.896;18.004;2023-09-19T07:30:56;2.53;;;1.67;;
63587;SDS011;49966;46.896;18.004;2023-09-19T07:33:24;5.18;;;1.70;;
63587;SDS011;49966;46.896;18.004;2023-09-19T07:35:55;5.20;;;1.50;;
63587;SDS011;49966;46.896;18.004;2023-09-19T07:38:26;2.45;;;1.60;;
63587;SDS011;49966;46.896;18.004;2023-09-19T07:40:59;4.22;;;1.75;;
63587;SDS011;49966;46.896;18.004;2023-09-19T07:43:29;1.58;;;1.48;;
63587;SDS011;49966;46.896;18.004;2023-09-19T07:46:03;3.35;;;1.50;;
63587;SDS011;49966;46.896;18.004;2023-09-19T07:48:33;2.75;;;1.77;;
63587;SDS011;49966;46.896;18.004;2023-09-19T07:51:03;3.40;;;1.58;;
63587;SDS011;49966;46.896;18.004;2023-09-19T07:53:32;5.20;;;1.60;;
63587;SDS011;49966;46.896;18.004;2023-09-19T07:56:03;4.07;;;1.77;;
63587;SDS011;49966;46.896;18.004;2023-09-19T07:58:32;4.10;;;1.45;;
63587;SDS011;49966;46.896;18.004;2023-09-19T08:01:04;1.88;;;1.48;;
63587;SDS011;49966;46.896;18.004;2023-09-19T08:03:33;2.33;;;1.80;;
63587;SDS011;49966;46.896;18.004;2023-09-19T08:06:05;6.50;;;1.55;;
63587;SDS011;49966;46.896;18.004;2023-09-19T08:08:34;2.58;;;1.95;;
63587;SDS011;49966;46.896;18.004;2023-09-19T08:11:03;4.10;;;1.75;;
63587;SDS011;49966;46.896;18.004;2023-09-19T08:13:38;4.23;;;1.50;;
63587;SDS011;49966;46.896;18.004;2023-09-19T08:16:11;3.90;;;1.65;;
63587;SDS011;49966;46.896;18.004;2023-09-19T08:18:42;1.70;;;1.50;;
63587;SDS011;49966;46.896;18.004;2023-09-19T08:21:11;4.63;;;1.73;;
63587;SDS011;49966;46.896;18.004;2023-09-19T08:23:44;3.72;;;1.90;;
63587;SDS011;49966;46.896;18.004;2023-09-19T08:26:13;4.47;;;1.80;;
63587;SDS011;49966;46.896;18.004;2023-09-19T08:28:41;10.60;;;1.80;;
63587;SDS011;49966;46.896;18.004;2023-09-19T08:31:11;2.58;;;1.55;;
63587;SDS011;49966;46.896;18.004;2023-09-19T08:33:39;3.78;;;1.65;;
63587;SDS011;49966;46.896;18.004;2023-09-19T08:36:10;3.38;;;1.63;;
63587;SDS011;49966;46.896;18.004;2023-09-19T08:38:38;4.25;;;1.70;;
63587;SDS011;49966;46.896;18.004;2023-09-19T08:41:07;1.75;;;1.40;;
63587;SDS011;49966;46.896;18.004;2023-09-19T08:43:36;1.73;;;1.58;;
63587;SDS011;49966;46.896;18.004;2023-09-19T08:46:07;4.30;;;1.58;;
63587;SDS011;49966;46.896;18.004;2023-09-19T08:48:43;3.42;;;1.70;;
63587;SDS011;49966;46.896;18.004;2023-09-19T08:51:18;6.13;;;2.05;;
63587;SDS011;49966;46.896;18.004;2023-09-19T08:53:57;2.30;;;1.77;;
63587;SDS011;49966;46.896;18.004;2023-09-19T08:56:31;4.03;;;2.10;;
63587;SDS011;49966;46.896;18.004;2023-09-19T08:59:02;4.68;;;1.75;;
63587;SDS011;49966;46.896;18.004;2023-09-19T09:01:36;3.05;;;1.80;;
63587;SDS011;49966;46.896;18.004;2023-09-19T09:04:08;3.78;;;1.73;;
63587;SDS011;49966;46.896;18.004;2023-09-19T09:06:40;3.70;;;2.10;;
63587;SDS011;49966;46.896;18.004;2023-09-19T09:09:10;1.95;;;1.60;;
63587;SDS011;49966;46.896;18.004;2023-09-19T09:11:38;4.43;;;2.00;;
63587;SDS011;49966;46.896;18.004;2023-09-19T09:14:08;3.05;;;1.92;;
63587;SDS011;49966;46.896;18.004;2023-09-19T09:16:38;4.22;;;2.20;;
63587;SDS011;49966;46.896;18.004;2023-09-19T09:19:06;5.68;;;2.28;;
63587;SDS011;49966;46.896;18.004;2023-09-19T09:21:34;2.85;;;1.90;;
63587;SDS011;49966;46.896;18.004;2023-09-19T09:26:57;3.13;;;1.90;;
63587;SDS011;49966;46.896;18.004;2023-09-19T09:29:41;4.93;;;2.08;;
63587;SDS011;49966;46.896;18.004;2023-09-19T09:32:20;3.35;;;1.90;;
63587;SDS011;49966;46.896;18.004;2023-09-19T09:34:50;2.00;;;1.83;;
63587;SDS011;49966;46.896;18.004;2023-09-19T09:37:20;2.10;;;1.60;;
63587;SDS011;49966;46.896;18.004;2023-09-19T09:39:50;4.30;;;1.67;;
63587;SDS011;49966;46.896;18.004;2023-09-19T09:42:29;2.20;;;1.63;;
63587;SDS011;49966;46.896;18.004;2023-09-19T09:45:13;2.55;;;1.52;;
63587;SDS011;49966;46.896;18.004;2023-09-19T09:47:44;2.13;;;1.70;;
63587;SDS011;49966;46.896;18.004;2023-09-19T09:50:25;3.63;;;1.83;;
63587;SDS011;49966;46.896;18.004;2023-09-19T09:52:56;2.07;;;1.60;;
63587;SDS011;49966;46.896;18.004;2023-09-19T09:58:33;3.15;;;1.65;;
63587;SDS011;49966;46.896;18.004;2023-09-19T10:01:02;4.38;;;1.85;;
63587;SDS011;49966;46.896;18.004;2023-09-19T10:03:37;3.35;;;1.80;;
63587;SDS011;49966;46.896;18.004;2023-09-19T10:06:12;3.22;;;1.63;;
63587;SDS011;49966;46.896;18.004;2023-09-19T10:08:57;2.85;;;1.40;;
63587;SDS011;49966;46.896;18.004;2023-09-19T10:11:33;3.50;;;1.77;;
63587;SDS011;49966;46.896;18.004;2023-09-19T10:14:04;3.40;;;1.60;;
63587;SDS011;49966;46.896;18.004;2023-09-19T10:16:37;2.72;;;1.70;;
63587;SDS011;49966;46.896;18.004;2023-09-19T10:19:10;3.05;;;1.48;;
63587;SDS011;49966;46.896;18.004;2023-09-19T10:21:43;4.43;;;2.13;;
63587;SDS011;49966;46.896;18.004;2023-09-19T10:24:12;2.63;;;1.70;;
63587;SDS011;49966;46.896;18.004;2023-09-19T10:26:43;3.03;;;1.50;;
63587;SDS011;49966;46.896;18.004;2023-09-19T10:29:13;1.63;;;1.52;;
63587;SDS011;49966;46.896;18.004;2023-09-19T10:31:43;2.45;;;1.90;;
63587;SDS011;49966;46.896;18.004;2023-09-19T10:34:16;3.50;;;1.45;;
63587;SDS011;49966;46.896;18.004;2023-09-19T10:36:46;4.15;;;2.05;;
63587;SDS011;49966;46.896;18.004;2023-09-19T10:39:15;3.17;;;1.70;;
63587;SDS011;49966;46.896;18.004;2023-09-19T10:41:50;2.30;;;1.80;;
63587;SDS011;49966;46.896;18.004;2023-09-19T10:44:21;1.95;;;1.48;;
63587;SDS011;49966;46.896;18.004;2023-09-19T10:46:52;1.65;;;1.48;;
63587;SDS011;49966;46.896;18.004;2023-09-19T10:49:23;4.00;;;1.80;;
63587;SDS011;49966;46.896;18.004;2023-09-19T10:51:52;2.00;;;1.90;;
63587;SDS011;49966;46.896;18.004;2023-09-19T10:54:26;6.90;;;1.70;;
63587;SDS011;49966;46.896;18.004;2023-09-19T10:56:59;1.77;;;1.48;;
63587;SDS011;49966;46.896;18.004;2023-09-19T10:59:27;2.88;;;1.70;;
63587;SDS011;49966;46.896;18.004;2023-09-19T11:02:15;4.68;;;1.67;;
63587;SDS011;49966;46.896;18.004;2023-09-19T11:04:47;2.30;;;1.60;;
63587;SDS011;49966;46.896;18.004;2023-09-19T11:07:17;3.00;;;1.67;;
63587;SDS011;49966;46.896;18.004;2023-09-19T11:09:46;3.53;;;1.40;;
63587;SDS011;49966;46.896;18.004;2023-09-19T11:21:42;5.82;;;2.33;;
63587;SDS011;49966;46.896;18.004;2023-09-19T11:24:28;3.33;;;1.70;;
63587;SDS011;49966;46.896;18.004;2023-09-19T11:27:10;2.83;;;1.70;;
63587;SDS011;49966;46.896;18.004;2023-09-19T11:29:45;2.47;;;1.70;;
63587;SDS011;49966;46.896;18.004;2023-09-19T11:32:14;2.67;;;1.90;;
63587;SDS011;49966;46.896;18.004;2023-09-19T11:34:44;3.83;;;1.70;;
63587;SDS011;49966;46.896;18.004;2023-09-19T11:40:31;4.28;;;1.88;;
63587;SDS011;49966;46.896;18.004;2023-09-19T11:42:59;2.85;;;1.85;;
63587;SDS011;49966;46.896;18.004;2023-09-19T11:46:07;2.85;;;2.00;;
63587;SDS011;49966;46.896;18.004;2023-09-19T11:48:36;5.80;;;1.80;;
63587;SDS011;49966;46.896;18.004;2023-09-19T11:51:16;3.72;;;1.80;;
63587;SDS011;49966;46.896;18.004;2023-09-19T11:53:50;1.88;;;1.60;;
63587;SDS011;49966;46.896;18.004;2023-09-19T11:56:22;3.60;;;1.75;;
63587;SDS011;49966;46.896;18.004;2023-09-19T11:58:53;5.03;;;1.90;;
63587;SDS011;49966;46.896;18.004;2023-09-19T12:01:23;1.88;;;1.70;;
63587;SDS011;49966;46.896;18.004;2023-09-19T12:03:57;3.00;;;1.60;;
63587;SDS011;49966;46.896;18.004;2023-09-19T12:06:27;3.40;;;1.70;;
63587;SDS011;49966;46.896;18.004;2023-09-19T12:08:59;3.10;;;1.70;;
63587;SDS011;49966;46.896;18.004;2023-09-19T12:11:30;2.50;;;1.60;;
63587;SDS011;49966;46.896;18.004;2023-09-19T12:14:02;2.92;;;1.75;;
63587;SDS011;49966;46.896;18.004;2023-09-19T12:16:32;2.42;;;1.50;;
63587;SDS011;49966;46.896;18.004;2023-09-19T12:21:56;4.28;;;2.03;;
63587;SDS011;49966;46.896;18.004;2023-09-19T12:24:26;2.58;;;1.60;;
63587;SDS011;49966;46.896;18.004;2023-09-19T12:27:02;1.95;;;1.67;;
63587;SDS011;49966;46.896;18.004;2023-09-19T12:29:43;2.20;;;1.70;;
63587;SDS011;49966;46.896;18.004;2023-09-19T12:32:12;2.72;;;1.80;;
63587;SDS011;49966;46.896;18.004;2023-09-19T12:34:50;3.78;;;1.92;;
63587;SDS011;49966;46.896;18.004;2023-09-19T12:37:20;5.60;;;1.85;;
63587;SDS011;49966;46.896;18.004;2023-09-19T12:39:50;2.95;;;1.88;;
63587;SDS011;49966;46.896;18.004;2023-09-19T12:42:24;3.70;;;1.60;;
63587;SDS011;49966;46.896;18.004;2023-09-19T12:44:57;2.20;;;1.40;;
63587;SDS011;49966;46.896;18.004;2023-09-19T12:47:28;1.98;;;1.70;;
63587;SDS011;49966;46.896;18.004;2023-09-19T12:50:07;5.57;;;1.80;;
63587;SDS011;49966;46.896;18.004;2023-09-19T12:52:44;3.92;;;1.58;;
63587;SDS011;49966;46.896;18.004;2023-09-19T12:55:20;4.07;;;1.65;;
63587;SDS011;49966;46.896;18.004;2023-09-19T12:57:57;3.95;;;1.67;;
63587;SDS011;49966;46.896;18.004;2023-09-19T13:00:34;2.85;;;1.85;;
63587;SDS011;49966;46.896;18.004;2023-09-19T13:03:14;2.33;;;1.70;;
63587;SDS011;49966;46.896;18.004;2023-09-19T13:05:53;2.40;;;1.80;;
63587;SDS011;49966;46.896;18.004;2023-09-19T13:08:24;1.60;;;1.50;;
63587;SDS011;49966;46.896;18.004;2023-09-19T13:11:03;2.97;;;1.67;;
63587;SDS011;49966;46.896;18.004;2023-09-19T13:13:35;2.50;;;1.38;;
63587;SDS011;49966;46.896;18.004;2023-09-19T13:16:05;4.00;;;1.67;;
63587;SDS011;49966;46.896;18.004;2023-09-19T13:18:42;6.20;;;1.90;;
63587;SDS011;49966;46.896;18.004;2023-09-19T13:21:13;2.88;;;1.73;;
63587;SDS011;49966;46.896;18.004;2023-09-19T13:23:51;3.20;;;1.92;;
63587;SDS011;49966;46.896;18.004;2023-09-19T13:26:21;2.65;;;2.00;;
63587;SDS011;49966;46.896;18.004;2023-09-19T13:28:52;2.83;;;1.63;;
63587;SDS011;49966;46.896;18.004;2023-09-19T13:31:21;4.10;;;1.83;;
63587;SDS011;49966;46.896;18.004;2023-09-19T13:33:51;1.95;;;1.75;;
63587;SDS011;49966;46.896;18.004;2023-09-19T13:36:19;2.15;;;1.70;;
63587;SDS011;49966;46.896;18.004;2023-09-19T13:38:48;3.00;;;1.67;;
63587;SDS011;49966;46.896;18.004;2023-09-19T13:41:17;3.05;;;1.70;;
63587;SDS011;49966;46.896;18.004;2023-09-19T13:43:46;1.70;;;1.55;;
63587;SDS011;49966;46.896;18.004;2023-09-19T13:46:17;5.82;;;1.70;;
63587;SDS011;49966;46.896;18.004;2023-09-19T13:48:52;3.33;;;2.20;;
63587;SDS011;49966;46.896;18.004;2023-09-19T13:51:22;1.90;;;1.73;;
63587;SDS011;49966;46.896;18.004;2023-09-19T13:53:50;2.38;;;1.77;;
63587;SDS011;49966;46.896;18.004;2023-09-19T13:56:19;3.35;;;1.63;;
63587;SDS011;49966;46.896;18.004;2023-09-19T13:58:48;3.53;;;2.13;;
63587;SDS011;49966;46.896;18.004;2023-09-19T14:01:18;3.05;;;1.50;;
63587;SDS011;49966;46.896;18.004;2023-09-19T14:03:47;4.93;;;1.73;;
63587;SDS011;49966;46.896;18.004;2023-09-19T14:06:18;2.00;;;1.60;;
63587;SDS011;49966;46.896;18.004;2023-09-19T14:08:47;1.88;;;1.70;;
63587;SDS011;49966;46.896;18.004;2023-09-19T14:11:16;3.25;;;1.60;;
63587;SDS011;49966;46.896;18.004;2023-09-19T14:13:45;3.50;;;1.90;;
63587;SDS011;49966;46.896;18.004;2023-09-19T14:16:16;3.00;;;1.65;;
63587;SDS011;49966;46.896;18.004;2023-09-19T14:18:47;3.15;;;1.73;;
63587;SDS011;49966;46.896;18.004;2023-09-19T14:21:15;3.97;;;1.85;;
63587;SDS011;49966;46.896;18.004;2023-09-19T14:23:43;2.38;;;1.60;;
63587;SDS011;49966;46.896;18.004;2023-09-19T14:26:13;4.10;;;1.83;;
63587;SDS011;49966;46.896;18.004;2023-09-19T14:28:42;3.75;;;1.70;;
63587;SDS011;49966;46.896;18.004;2023-09-19T14:31:11;2.83;;;1.70;;
63587;SDS011;49966;46.896;18.004;2023-09-19T14:33:42;3.65;;;2.00;;
63587;SDS011;49966;46.896;18.004;2023-09-19T14:36:12;3.60;;;2.10;;
63587;SDS011;49966;46.896;18.004;2023-09-19T14:38:41;4.80;;;1.90;;
63587;SDS011;49966;46.896;18.004;2023-09-19T14:41:11;4.00;;;1.98;;
63587;SDS011;49966;46.896;18.004;2023-09-19T14:43:40;7.35;;;2.00;;
63587;SDS011;49966;46.896;18.004;2023-09-19T14:46:08;3.45;;;1.75;;
63587;SDS011;49966;46.896;18.004;2023-09-19T14:48:39;6.38;;;1.77;;
63587;SDS011;49966;46.896;18.004;2023-09-19T14:51:08;2.50;;;1.73;;
63587;SDS011;49966;46.896;18.004;2023-09-19T14:53:40;2.33;;;1.40;;
63587;SDS011;49966;46.896;18.004;2023-09-19T14:56:09;5.57;;;1.73;;
63587;SDS011;49966;46.896;18.004;2023-09-19T14:58:40;3.55;;;1.80;;
63587;SDS011;49966;46.896;18.004;2023-09-19T15:01:10;1.67;;;1.48;;
63587;SDS011;49966;46.896;18.004;2023-09-19T15:03:41;4.75;;;1.75;;
63587;SDS011;49966;46.896;18.004;2023-09-19T15:06:11;4.82;;;1.90;;
63587;SDS011;49966;46.896;18.004;2023-09-19T15:08:43;1.98;;;1.48;;
63587;SDS011;49966;46.896;18.004;2023-09-19T15:11:15;3.40;;;1.50;;
63587;SDS011;49966;46.896;18.004;2023-09-19T15:13:46;1.90;;;1.80;;
63587;SDS011;49966;46.896;18.004;2023-09-19T15:16:17;2.35;;;1.63;;
63587;SDS011;49966;46.896;18.004;2023-09-19T15:18:47;3.05;;;2.00;;